SVA1048 OEJN-OERK
Flight info
| Callsign | SVA1048 |
|---|---|
| Flight time | 0h 42m |
| Altitude | 39000 |
| Route | EGREP T532 ORDEM |
| Aircraft | A333/H-SDE2E3FGHIRWXY/L |
Departure
| Time | 2026-05-07 21:10 |
|---|---|
| Airport | King Abdulaziz International Airport (OEJN) |
Arrival
| Time | 2026-05-07 21:52 |
|---|---|
| Airport | King Khalid International Airport (OERK) |
| Time | Latitude | Longitude | Altitude | Speed | Heading |
|---|---|---|---|---|---|
| 2026-05-07 20:32 | 21.66788 | 39.16990 | 38 ft | 0 kts | 66° |
| 2026-05-07 20:59 | 21.66779 | 39.16967 | 37 ft | 4 kts | 71° |
| 2026-05-07 21:00 | 21.66772 | 39.16939 | 34 ft | 4 kts | 84° |
| 2026-05-07 21:00 | 21.66773 | 39.16913 | 36 ft | 4 kts | 123° |
| 2026-05-07 21:00 | 21.66782 | 39.16903 | 36 ft | 0 kts | 161° |
| 2026-05-07 21:06 | 21.66749 | 39.16914 | 51 ft | 12 kts | 162° |
| 2026-05-07 21:06 | 21.66648 | 39.16953 | 38 ft | 18 kts | 159° |
| 2026-05-07 21:06 | 21.66528 | 39.16992 | 39 ft | 17 kts | 163° |
| 2026-05-07 21:06 | 21.66412 | 39.17022 | 39 ft | 16 kts | 174° |
| 2026-05-07 21:07 | 21.66314 | 39.16980 | 40 ft | 18 kts | 228° |
| 2026-05-07 21:07 | 21.66259 | 39.16850 | 40 ft | 21 kts | 250° |
| 2026-05-07 21:07 | 21.66214 | 39.16719 | 40 ft | 16 kts | 250° |
| 2026-05-07 21:07 | 21.66188 | 39.16644 | 39 ft | 2 kts | 249° |
| 2026-05-07 21:08 | 21.66174 | 39.16601 | 39 ft | 10 kts | 250° |
| 2026-05-07 21:08 | 21.66167 | 39.16581 | 38 ft | 0 kts | 250° |
| 2026-05-07 21:08 | 21.66163 | 39.16569 | 38 ft | 6 kts | 251° |
| 2026-05-07 21:08 | 21.66159 | 39.16505 | 38 ft | 10 kts | 283° |
| 2026-05-07 21:09 | 21.66212 | 39.16449 | 37 ft | 12 kts | 339° |
| 2026-05-07 21:09 | 21.66341 | 39.16398 | 38 ft | 40 kts | 340° |
| 2026-05-07 21:09 | 21.66892 | 39.16183 | 38 ft | 128 kts | 340° |
| 2026-05-07 21:09 | 21.67994 | 39.15752 | 150 ft | 202 kts | 341° |
| 2026-05-07 21:10 | 21.69487 | 39.15184 | 560 ft | 254 kts | 340° |
| 2026-05-07 21:10 | 21.71275 | 39.14503 | 1074 ft | 282 kts | 333° |
| 2026-05-07 21:10 | 21.73053 | 39.13623 | 1839 ft | 278 kts | 329° |
| 2026-05-07 21:10 | 21.74760 | 39.12734 | 2769 ft | 269 kts | 329° |
| 2026-05-07 21:11 | 21.76449 | 39.11944 | 3692 ft | 260 kts | 337° |
| 2026-05-07 21:11 | 21.78132 | 39.11358 | 4657 ft | 242 kts | 340° |
| 2026-05-07 21:11 | 21.81282 | 39.10328 | 5658 ft | 256 kts | 339° |
| 2026-05-07 21:12 | 21.83055 | 39.09679 | 6045 ft | 280 kts | 338° |
| 2026-05-07 21:12 | 21.86184 | 39.08475 | 7212 ft | 291 kts | 337° |
| 2026-05-07 21:12 | 21.89976 | 39.06950 | 9054 ft | 291 kts | 335° |
| 2026-05-07 21:12 | 21.93755 | 39.05159 | 10519 ft | 310 kts | 333° |
| 2026-05-07 21:13 | 21.97897 | 39.03169 | 11561 ft | 339 kts | 333° |
| 2026-05-07 21:13 | 22.02291 | 39.00818 | 11982 ft | 360 kts | 322° |
| 2026-05-07 21:13 | 22.06837 | 38.98534 | 12014 ft | 361 kts | 336° |
| 2026-05-07 21:13 | 22.11475 | 38.96560 | 12580 ft | 358 kts | 334° |
| 2026-05-07 21:14 | 22.16391 | 38.95574 | 13996 ft | 373 kts | 7° |
| 2026-05-07 21:14 | 22.20935 | 38.98324 | 15440 ft | 387 kts | 43° |
| 2026-05-07 21:14 | 22.24236 | 39.01626 | 16620 ft | 395 kts | 39° |
| 2026-05-07 21:14 | 22.26291 | 39.03627 | 17223 ft | 402 kts | 41° |
| 2026-05-07 21:15 | 22.28350 | 39.05708 | 17807 ft | 409 kts | 45° |
| 2026-05-07 21:15 | 22.30120 | 39.08151 | 18232 ft | 417 kts | 53° |
| 2026-05-07 21:15 | 22.31429 | 39.10960 | 18626 ft | 421 kts | 65° |
| 2026-05-07 21:15 | 22.32249 | 39.13990 | 19160 ft | 420 kts | 72° |
| 2026-05-07 21:16 | 22.32890 | 39.17064 | 19669 ft | 421 kts | 73° |
| 2026-05-07 21:16 | 22.33469 | 39.20187 | 20162 ft | 425 kts | 81° |
| 2026-05-07 21:16 | 22.33956 | 39.23351 | 20726 ft | 430 kts | 81° |
| 2026-05-07 21:16 | 22.34498 | 39.26546 | 21245 ft | 435 kts | 79° |
| 2026-05-07 21:17 | 22.35107 | 39.29770 | 21767 ft | 441 kts | 78° |
| 2026-05-07 21:17 | 22.35763 | 39.33026 | 22288 ft | 446 kts | 77° |
| 2026-05-07 21:17 | 22.36448 | 39.36307 | 22816 ft | 450 kts | 77° |
| 2026-05-07 21:17 | 22.37149 | 39.39607 | 23407 ft | 452 kts | 77° |
| 2026-05-07 21:18 | 22.37862 | 39.42934 | 23865 ft | 457 kts | 77° |
| 2026-05-07 21:18 | 22.38584 | 39.46293 | 24291 ft | 462 kts | 77° |
| 2026-05-07 21:18 | 22.39314 | 39.49685 | 24715 ft | 466 kts | 77° |
| 2026-05-07 21:18 | 22.40052 | 39.53106 | 25169 ft | 469 kts | 77° |
| 2026-05-07 21:19 | 22.40794 | 39.56543 | 25615 ft | 471 kts | 78° |
| 2026-05-07 21:19 | 22.41542 | 39.60004 | 26075 ft | 474 kts | 78° |
| 2026-05-07 21:19 | 22.42292 | 39.63480 | 26520 ft | 477 kts | 78° |
| 2026-05-07 21:19 | 22.43046 | 39.66980 | 26925 ft | 480 kts | 78° |
| 2026-05-07 21:20 | 22.43806 | 39.70510 | 27366 ft | 484 kts | 78° |
| 2026-05-07 21:20 | 22.44560 | 39.74012 | 27781 ft | 487 kts | 78° |
| 2026-05-07 21:20 | 22.45344 | 39.77587 | 28225 ft | 490 kts | 76° |
| 2026-05-07 21:20 | 22.46454 | 39.81085 | 28661 ft | 496 kts | 66° |
| 2026-05-07 21:21 | 22.48166 | 39.84352 | 28887 ft | 503 kts | 53° |
| 2026-05-07 21:21 | 22.50482 | 39.87204 | 29231 ft | 508 kts | 43° |
| 2026-05-07 21:21 | 22.53060 | 39.89827 | 29652 ft | 510 kts | 40° |
| 2026-05-07 21:21 | 22.55734 | 39.92363 | 30049 ft | 513 kts | 38° |
| 2026-05-07 21:22 | 22.58455 | 39.94880 | 30382 ft | 516 kts | 38° |
| 2026-05-07 21:22 | 22.61199 | 39.97415 | 30662 ft | 521 kts | 38° |
| 2026-05-07 21:22 | 22.63955 | 39.99983 | 30961 ft | 525 kts | 38° |
| 2026-05-07 21:22 | 22.66718 | 40.02585 | 31242 ft | 529 kts | 39° |
| 2026-05-07 21:23 | 22.69494 | 40.05221 | 31508 ft | 534 kts | 39° |
| 2026-05-07 21:23 | 22.72288 | 40.07891 | 31780 ft | 538 kts | 39° |
| 2026-05-07 21:23 | 22.75100 | 40.10586 | 32081 ft | 542 kts | 39° |
| 2026-05-07 21:23 | 22.77922 | 40.13297 | 32461 ft | 543 kts | 39° |
| 2026-05-07 21:24 | 22.80749 | 40.16014 | 32829 ft | 544 kts | 39° |
| 2026-05-07 21:24 | 22.83583 | 40.18740 | 33203 ft | 545 kts | 39° |
| 2026-05-07 21:24 | 22.86426 | 40.21474 | 33538 ft | 547 kts | 39° |
| 2026-05-07 21:24 | 22.89274 | 40.24215 | 33900 ft | 548 kts | 39° |
| 2026-05-07 21:25 | 22.92129 | 40.26964 | 34213 ft | 550 kts | 39° |
| 2026-05-07 21:25 | 22.94995 | 40.29725 | 34508 ft | 551 kts | 39° |
| 2026-05-07 21:25 | 22.97860 | 40.32486 | 34855 ft | 551 kts | 39° |
| 2026-05-07 21:25 | 23.00725 | 40.35248 | 35188 ft | 551 kts | 39° |
| 2026-05-07 21:26 | 23.03585 | 40.38008 | 35519 ft | 551 kts | 39° |
| 2026-05-07 21:26 | 23.06451 | 40.40775 | 35832 ft | 551 kts | 39° |
| 2026-05-07 21:26 | 23.09314 | 40.43540 | 36146 ft | 551 kts | 39° |
| 2026-05-07 21:26 | 23.12183 | 40.46312 | 36407 ft | 553 kts | 39° |
| 2026-05-07 21:27 | 23.15060 | 40.49094 | 36702 ft | 553 kts | 39° |
| 2026-05-07 21:27 | 23.17931 | 40.51873 | 37033 ft | 553 kts | 39° |
| 2026-05-07 21:27 | 23.21241 | 40.55078 | 37404 ft | 552 kts | 39° |
| 2026-05-07 21:27 | 23.24126 | 40.57886 | 37678 ft | 553 kts | 41° |
| 2026-05-07 21:28 | 23.26700 | 40.60995 | 37915 ft | 554 kts | 54° |
| 2026-05-07 21:28 | 23.28710 | 40.64543 | 38188 ft | 550 kts | 67° |
| 2026-05-07 21:28 | 23.30274 | 40.68326 | 38486 ft | 548 kts | 70° |
| 2026-05-07 21:28 | 23.31702 | 40.72160 | 38781 ft | 546 kts | 72° |
| 2026-05-07 21:29 | 23.33047 | 40.76017 | 38990 ft | 546 kts | 73° |
| 2026-05-07 21:29 | 23.34430 | 40.80099 | 39044 ft | 547 kts | 73° |
| 2026-05-07 21:29 | 23.46991 | 41.31112 | 8209 ft | 428 kts | 91° |
| 2026-05-07 21:29 | 23.49852 | 41.31981 | 4905 ft | 229 kts | 11° |
| 2026-05-07 21:30 | 23.52898 | 41.32257 | 6990 ft | 217 kts | 11° |
| 2026-05-07 21:30 | 23.55717 | 41.33303 | 8869 ft | 222 kts | 52° |
| 2026-05-07 21:30 | 23.55865 | 41.36464 | 10497 ft | 230 kts | 117° |
| 2026-05-07 21:30 | 23.55044 | 41.40250 | 11184 ft | 283 kts | 95° |
| 2026-05-07 21:31 | 23.59125 | 41.54608 | 15280 ft | 337 kts | 73° |
| 2026-05-07 21:31 | 23.66027 | 41.74868 | 19857 ft | 383 kts | 78° |
| 2026-05-07 21:31 | 23.73374 | 41.97861 | 23915 ft | 419 kts | 78° |
| 2026-05-07 21:31 | 23.81852 | 42.22734 | 26926 ft | 453 kts | 76° |
| 2026-05-07 21:32 | 23.90839 | 42.49343 | 29523 ft | 481 kts | 76° |
| 2026-05-07 21:32 | 24.00361 | 42.77400 | 31680 ft | 503 kts | 77° |
| 2026-05-07 21:32 | 24.10085 | 43.06710 | 33583 ft | 521 kts | 78° |
| 2026-05-07 21:32 | 24.19961 | 43.36871 | 35406 ft | 529 kts | 78° |
| 2026-05-07 21:33 | 24.29946 | 43.67505 | 37031 ft | 534 kts | 79° |
| 2026-05-07 21:33 | 24.39896 | 43.98276 | 38581 ft | 537 kts | 79° |
| 2026-05-07 21:33 | 24.47329 | 44.24010 | 39069 ft | 525 kts | 92° |
| 2026-05-07 21:33 | 24.47777 | 44.27974 | 39070 ft | 523 kts | 94° |
| 2026-05-07 21:34 | 24.48673 | 44.35932 | 39081 ft | 528 kts | 92° |
| 2026-05-07 21:34 | 24.49872 | 44.43913 | 39091 ft | 532 kts | 83° |
| 2026-05-07 21:35 | 24.51522 | 44.51829 | 39089 ft | 531 kts | 82° |
| 2026-05-07 21:35 | 24.53086 | 44.59736 | 39087 ft | 530 kts | 84° |
| 2026-05-07 21:36 | 24.54514 | 44.67677 | 39084 ft | 530 kts | 84° |
| 2026-05-07 21:36 | 24.55213 | 44.71690 | 38968 ft | 529 kts | 84° |
| 2026-05-07 21:36 | 24.59727 | 44.98190 | 35133 ft | 525 kts | 85° |
| 2026-05-07 21:37 | 24.64931 | 45.29453 | 30528 ft | 507 kts | 83° |
| 2026-05-07 21:37 | 24.69847 | 45.58943 | 26124 ft | 464 kts | 82° |
| 2026-05-07 21:37 | 24.71571 | 45.69987 | 26008 ft | 408 kts | 91° |
| 2026-05-07 21:37 | 24.71831 | 45.79140 | 24879 ft | 399 kts | 92° |
| 2026-05-07 21:38 | 24.71865 | 45.82176 | 24548 ft | 394 kts | 92° |
| 2026-05-07 21:38 | 24.72174 | 45.96015 | 22666 ft | 384 kts | 90° |
| 2026-05-07 21:38 | 24.72269 | 45.98938 | 22243 ft | 381 kts | 90° |
| 2026-05-07 21:38 | 24.72362 | 46.01839 | 21881 ft | 377 kts | 90° |
| 2026-05-07 21:39 | 24.72547 | 46.07753 | 21137 ft | 369 kts | 91° |
| 2026-05-07 21:39 | 24.73207 | 46.29374 | 17884 ft | 356 kts | 91° |
| 2026-05-07 21:39 | 24.73352 | 46.34806 | 17114 ft | 347 kts | 91° |
| 2026-05-07 21:39 | 24.73512 | 46.39532 | 16447 ft | 341 kts | 86° |
| 2026-05-07 21:40 | 24.74236 | 46.42011 | 16070 ft | 343 kts | 64° |
| 2026-05-07 21:40 | 24.75442 | 46.44262 | 15737 ft | 340 kts | 60° |
| 2026-05-07 21:40 | 24.78410 | 46.49543 | 14830 ft | 333 kts | 61° |
| 2026-05-07 21:40 | 24.82673 | 46.57525 | 13314 ft | 326 kts | 62° |
| 2026-05-07 21:41 | 24.83631 | 46.59729 | 13131 ft | 313 kts | 78° |
| 2026-05-07 21:41 | 24.83677 | 46.62025 | 12943 ft | 294 kts | 108° |
| 2026-05-07 21:41 | 24.82726 | 46.63885 | 12720 ft | 279 kts | 139° |
| 2026-05-07 21:41 | 24.81167 | 46.65097 | 12427 ft | 272 kts | 152° |
| 2026-05-07 21:42 | 24.71704 | 46.70837 | 10400 ft | 269 kts | 151° |
| 2026-05-07 21:42 | 24.59654 | 46.78409 | 7796 ft | 260 kts | 150° |
| 2026-05-07 21:42 | 24.56537 | 46.80372 | 7198 ft | 255 kts | 150° |
| 2026-05-07 21:42 | 24.45499 | 46.87334 | 5950 ft | 235 kts | 148° |
| 2026-05-07 21:43 | 24.38069 | 46.91989 | 5913 ft | 228 kts | 149° |
| 2026-05-07 21:43 | 24.36563 | 46.92970 | 5935 ft | 212 kts | 143° |
| 2026-05-07 21:43 | 24.35630 | 46.94123 | 5956 ft | 199 kts | 117° |
| 2026-05-07 21:43 | 24.35391 | 46.95572 | 5926 ft | 191 kts | 85° |
| 2026-05-07 21:44 | 24.35814 | 46.96903 | 5938 ft | 182 kts | 67° |
| 2026-05-07 21:44 | 24.36431 | 46.98111 | 5933 ft | 182 kts | 64° |
| 2026-05-07 21:44 | 24.37074 | 46.99301 | 5932 ft | 181 kts | 64° |
| 2026-05-07 21:44 | 24.38647 | 47.02120 | 5928 ft | 184 kts | 52° |
| 2026-05-07 21:45 | 24.39791 | 47.02789 | 5943 ft | 196 kts | 15° |
| 2026-05-07 21:45 | 24.41262 | 47.02679 | 5956 ft | 229 kts | 342° |
| 2026-05-07 21:45 | 24.43181 | 47.01596 | 5938 ft | 239 kts | 330° |
| 2026-05-07 21:45 | 24.54805 | 46.94149 | 5952 ft | 240 kts | 332° |
| 2026-05-07 21:46 | 24.66410 | 46.86852 | 5956 ft | 239 kts | 331° |
| 2026-05-07 21:46 | 24.70545 | 46.84352 | 5924 ft | 239 kts | 340° |
| 2026-05-07 21:46 | 24.72112 | 46.83759 | 5627 ft | 234 kts | 345° |
| 2026-05-07 21:46 | 24.73612 | 46.83249 | 5453 ft | 219 kts | 346° |
| 2026-05-07 21:47 | 24.75041 | 46.82763 | 5193 ft | 212 kts | 346° |
| 2026-05-07 21:47 | 24.76430 | 46.82282 | 4889 ft | 207 kts | 346° |
| 2026-05-07 21:47 | 24.77792 | 46.81805 | 4604 ft | 202 kts | 346° |
| 2026-05-07 21:47 | 24.79099 | 46.81338 | 4395 ft | 193 kts | 346° |
| 2026-05-07 21:48 | 24.80355 | 46.80868 | 4118 ft | 187 kts | 347° |
| 2026-05-07 21:48 | 24.81571 | 46.80334 | 3996 ft | 190 kts | 338° |
| 2026-05-07 21:48 | 24.82732 | 46.79627 | 3989 ft | 190 kts | 335° |
| 2026-05-07 21:48 | 24.83879 | 46.78923 | 3993 ft | 189 kts | 335° |
| 2026-05-07 21:49 | 24.85020 | 46.78202 | 3991 ft | 189 kts | 335° |
| 2026-05-07 21:49 | 24.86158 | 46.77490 | 3880 ft | 185 kts | 335° |
| 2026-05-07 21:49 | 24.87238 | 46.76815 | 3654 ft | 172 kts | 336° |
| 2026-05-07 21:49 | 24.88253 | 46.76172 | 3448 ft | 165 kts | 338° |
| 2026-05-07 21:50 | 24.89211 | 46.75564 | 3232 ft | 158 kts | 338° |
| 2026-05-07 21:50 | 24.90156 | 46.74966 | 3033 ft | 156 kts | 338° |
| 2026-05-07 21:50 | 24.91095 | 46.74372 | 2814 ft | 156 kts | 336° |
| 2026-05-07 21:50 | 24.92033 | 46.73782 | 2589 ft | 154 kts | 333° |
| 2026-05-07 21:51 | 24.92960 | 46.73187 | 2413 ft | 154 kts | 333° |
| 2026-05-07 21:51 | 24.93885 | 46.72600 | 2205 ft | 153 kts | 332° |
| 2026-05-07 21:51 | 24.94809 | 46.72014 | 2059 ft | 152 kts | 331° |
| 2026-05-07 21:51 | 24.95690 | 46.71457 | 2046 ft | 136 kts | 332° |
| 2026-05-07 21:52 | 24.96377 | 46.71042 | 2041 ft | 81 kts | 327° |
| 2026-05-07 21:52 | 24.96759 | 46.70787 | 2043 ft | 49 kts | 330° |
| 2026-05-07 21:52 | 24.97021 | 46.70624 | 2042 ft | 32 kts | 332° |
| 2026-05-07 21:52 | 24.97109 | 46.70518 | 2038 ft | 10 kts | 272° |
| 2026-05-07 21:53 | 24.97082 | 46.70445 | 2040 ft | 11 kts | 241° |
| 2026-05-07 21:53 | 24.97044 | 46.70374 | 2041 ft | 10 kts | 241° |
| 2026-05-07 21:53 | 24.97034 | 46.70354 | 2041 ft | 0 kts | 240° |
| 2026-05-07 21:54 | 24.97026 | 46.70338 | 2041 ft | 8 kts | 240° |
| 2026-05-07 21:54 | 24.96985 | 46.70258 | 2040 ft | 13 kts | 240° |
| 2026-05-07 21:54 | 24.96904 | 46.70219 | 2040 ft | 13 kts | 165° |
| 2026-05-07 21:55 | 24.96794 | 46.70282 | 2042 ft | 23 kts | 149° |
| 2026-05-07 21:55 | 24.96668 | 46.70361 | 2041 ft | 23 kts | 149° |
| 2026-05-07 21:55 | 24.96541 | 46.70441 | 2042 ft | 20 kts | 150° |
| 2026-05-07 21:55 | 24.96436 | 46.70489 | 2040 ft | 14 kts | 189° |
| 2026-05-07 21:56 | 24.96373 | 46.70413 | 2037 ft | 15 kts | 229° |
| 2026-05-07 21:56 | 24.96293 | 46.70424 | 2043 ft | 15 kts | 153° |
| 2026-05-07 21:56 | 24.96239 | 46.70414 | 2038 ft | 7 kts | 235° |
| 2026-05-07 21:56 | 24.96209 | 46.70362 | 2041 ft | 5 kts | 237° |
| 2026-05-07 21:57 | 24.96196 | 46.70340 | 2043 ft | 1 kts | 238° |
| 2026-05-07 21:57 | 24.96192 | 46.70333 | 2043 ft | 0 kts | 237° |
| 2026-05-07 21:59 | 24.96198 | 46.70343 | 2043 ft | 2 kts | 237° |
| 2026-05-07 21:59 | 24.96202 | 46.70349 | 2041 ft | 0 kts | 237° |